Terminal Aerodrome Forecast
Issued by NWS

Home | Current Version | Previous Version | Text Only | Print | Product List | Glossary On
Versions: 1 2 3 4 5 6 7 8 9 10 11 12 13 14 15 16 17 18
243
FTAK31 PAJN 231128
TAFASI
TAF
PASI 231128Z 2312/2412 33004KT P6SM OVC120
     FM231500 14006KT P6SM -RA OVC070
     FM232200 12009KT P6SM -RA SCT025 OVC040
     FM240600 13012G20KT 6SM -RA BR BKN030 OVC040 WS020/14030KT=

USA.gov is the U.S. government's official web portal to all federal, state and local government web resources and services.